メインページ
METAR-TAF:

METAR-TAF

空港 :

Medicine Hat, アルバータ州, カナダ

緯度: 50-01N, 経度: 110-43W, 海抜: 717m

現時点の気象観測

当レポートは1時間13分前の10:00(UTC)に作成
無風
気温 9°C
湿度 93%
気圧 1017 hPa
視程: 14.5km
晴天

METAR: CYXH 171000Z AUTO 00000KT 9SM CLR 09/08 A3003 RMK SLP173

時間: 05:13 (11:13 UTC)

予報

当レポートは5時間35分前の05:38(UTC)に作成
予報は17日の 06時(UTC)から 17日の 18時(UTC)まで有効
の風 6kt
視程: 10km
高度8000ftの雲はほとんどない
17日の 1600時(UTC)から
東/南東の風 6kt
視程: 10km
高度5000ftの雲はほとんどない

TAF: CYXH 170538Z 1706/1718 08006KT P6SM FEW080 FM171600 12006KT P6SM FEW050 RMK FCST BASED ON AUTO OBS. NXT FCST BY 171200Z

4,000以上の空港の気象観測と天気予報(METAR報とTAF報)

利用可能な観測所は地図上に黄色い丸と赤い丸で示す。

丸の上にカーソルを重ねると観測所名を参照できる。

次にクリックすると気象観測と天気予報を参照できる。

マップの切り替え:黒色「×」印の緑ボタンをクリックして拡大、「-」印の緑ボタンをクリックして縮小、緑色の三角印をクリックして隣りの地図に切り替え


METAR-TAF: